createdAt,value
2022-08-03T00:00:41.510Z,17.08
2022-08-03T00:03:10.121Z,17.06
2022-08-03T00:05:38.871Z,17.03
2022-08-03T00:08:07.377Z,17.01
2022-08-03T00:10:35.928Z,16.99
2022-08-03T00:13:05.038Z,16.98
2022-08-03T00:15:34.256Z,16.96
2022-08-03T00:18:02.809Z,16.95
2022-08-03T00:20:31.431Z,16.94
2022-08-03T00:22:59.972Z,16.93
2022-08-03T00:25:28.633Z,16.92
2022-08-03T00:27:57.310Z,16.92
2022-08-03T00:30:28.478Z,16.90
2022-08-03T00:33:00.486Z,16.89
2022-08-03T00:35:50.016Z,16.87
2022-08-03T00:38:20.441Z,16.85
2022-08-03T00:40:49.186Z,16.83
2022-08-03T00:43:18.132Z,16.81
2022-08-03T00:45:46.650Z,16.80
2022-08-03T00:48:29.404Z,16.79
2022-08-03T00:51:02.367Z,16.78
2022-08-03T00:53:32.282Z,16.75
2022-08-03T00:56:00.974Z,16.72
2022-08-03T00:58:29.672Z,16.68
2022-08-03T01:00:59.151Z,16.64
2022-08-03T01:03:27.871Z,16.61
2022-08-03T01:06:11.504Z,16.59
2022-08-03T01:08:47.736Z,16.54
2022-08-03T01:12:00.921Z,16.50
2022-08-03T01:15:09.719Z,16.46
2022-08-03T01:17:56.506Z,16.41
2022-08-03T01:20:31.638Z,16.37
2022-08-03T01:23:28.869Z,16.32
2022-08-03T01:26:25.072Z,16.27
2022-08-03T01:28:56.537Z,16.21
2022-08-03T01:31:37.173Z,16.16
2022-08-03T01:34:32.581Z,16.11
2022-08-03T01:37:06.283Z,16.08
2022-08-03T01:39:38.379Z,16.04
2022-08-03T01:42:11.687Z,16.02
2022-08-03T01:44:44.166Z,15.98
2022-08-03T01:47:13.750Z,15.96
2022-08-03T01:49:45.713Z,15.94
2022-08-03T01:52:19.024Z,15.93
2022-08-03T01:54:52.255Z,15.91
2022-08-03T01:57:23.545Z,15.89
2022-08-03T01:59:54.450Z,15.87
2022-08-03T02:02:28.971Z,15.85
2022-08-03T02:05:11.075Z,15.82
2022-08-03T02:07:42.608Z,15.80
2022-08-03T02:10:16.335Z,15.78
2022-08-03T02:13:07.345Z,15.76
2022-08-03T02:15:38.441Z,15.74
2022-08-03T02:18:10.731Z,15.74
2022-08-03T02:20:42.627Z,15.74
2022-08-03T02:23:11.357Z,15.73
2022-08-03T02:25:47.005Z,15.72
2022-08-03T02:28:22.371Z,15.69
2022-08-03T02:30:56.030Z,15.68
2022-08-03T02:33:34.454Z,15.66
2022-08-03T02:36:05.462Z,15.65
2022-08-03T02:38:39.122Z,15.63
2022-08-03T02:41:15.328Z,15.61
2022-08-03T02:44:05.889Z,15.58
2022-08-03T02:46:40.271Z,15.58
2022-08-03T02:49:40.551Z,15.58
2022-08-03T02:52:02.678Z,15.57
2022-08-03T02:54:33.679Z,15.56
2022-08-03T02:57:03.319Z,15.56
2022-08-03T02:59:32.413Z,15.56
2022-08-03T03:02:02.995Z,15.56
2022-08-03T03:04:33.288Z,15.55
2022-08-03T03:07:03.714Z,15.56
2022-08-03T03:09:40.284Z,15.54
2022-08-03T03:12:13.173Z,15.53
2022-08-03T03:14:41.967Z,15.53
2022-08-03T03:17:12.233Z,15.54
2022-08-03T03:19:43.158Z,15.57
2022-08-03T03:22:13.545Z,15.59
2022-08-03T03:24:43.149Z,15.62
2022-08-03T03:27:16.748Z,15.65
2022-08-03T03:29:46.139Z,15.69
2022-08-03T03:32:15.402Z,15.73
2022-08-03T03:34:44.420Z,15.75
2022-08-03T03:37:12.971Z,15.78
2022-08-03T03:39:41.623Z,15.82
2022-08-03T03:42:10.204Z,15.86
2022-08-03T03:44:39.370Z,15.90
2022-08-03T03:47:07.942Z,15.96
2022-08-03T03:49:37.031Z,16.02
2022-08-03T03:52:06.324Z,16.08
2022-08-03T03:54:45.765Z,16.13
2022-08-03T03:57:14.315Z,16.17
2022-08-03T03:59:44.081Z,16.21
2022-08-03T04:02:13.060Z,16.26
2022-08-03T04:05:00.123Z,16.31
2022-08-03T04:07:55.313Z,16.37
2022-08-03T04:10:47.693Z,16.43
2022-08-03T04:13:18.475Z,16.48
2022-08-03T04:15:48.721Z,16.52
2022-08-03T04:18:18.705Z,16.57
2022-08-03T04:20:50.550Z,16.61
2022-08-03T04:23:22.606Z,16.66
2022-08-03T04:25:53.497Z,16.70
2022-08-03T04:28:31.071Z,16.74
2022-08-03T04:31:04.244Z,16.77
2022-08-03T04:33:35.743Z,16.81
2022-08-03T04:36:09.018Z,16.83
2022-08-03T04:38:50.406Z,16.87
2022-08-03T04:41:21.138Z,16.91
2022-08-03T04:43:52.251Z,16.93
2022-08-03T04:46:23.749Z,16.96
2022-08-03T04:48:52.766Z,16.99
2022-08-03T04:51:24.553Z,17.02
2022-08-03T04:53:53.468Z,17.06
2022-08-03T04:56:22.984Z,17.10
2022-08-03T04:58:51.950Z,17.15
2022-08-03T05:01:20.865Z,17.18
2022-08-03T05:03:49.414Z,17.23
2022-08-03T05:06:17.950Z,17.27
2022-08-03T05:08:47.209Z,17.31
2022-08-03T05:11:18.046Z,17.34
2022-08-03T05:13:47.644Z,17.38
2022-08-03T05:16:16.377Z,17.42
2022-08-03T05:18:46.179Z,17.44
2022-08-03T05:21:14.759Z,17.48
2022-08-03T05:23:45.258Z,17.50
2022-08-03T05:26:13.722Z,17.54
2022-08-03T05:28:49.965Z,17.58
2022-08-03T05:31:20.240Z,17.60
2022-08-03T05:33:49.477Z,17.63
2022-08-03T05:36:18.038Z,17.68
2022-08-03T05:38:46.651Z,17.72
2022-08-03T05:41:20.326Z,17.78
2022-08-03T05:43:54.459Z,17.87
2022-08-03T05:46:23.509Z,17.97
2022-08-03T05:48:52.455Z,18.07
2022-08-03T05:51:21.219Z,18.17
2022-08-03T05:53:49.932Z,18.28
2022-08-03T05:56:22.848Z,18.37
2022-08-03T05:58:53.121Z,18.47
2022-08-03T06:01:22.518Z,18.59
2022-08-03T06:03:52.330Z,18.70
2022-08-03T06:06:22.055Z,18.79
2022-08-03T06:08:50.852Z,18.91
2022-08-03T06:11:19.360Z,19.03
2022-08-03T06:13:47.961Z,19.16
2022-08-03T06:16:16.498Z,19.29
2022-08-03T06:18:46.209Z,19.42
2022-08-03T06:21:16.421Z,19.55
2022-08-03T06:23:52.793Z,19.68
2022-08-03T06:26:30.521Z,19.82
2022-08-03T06:28:59.372Z,19.97
2022-08-03T06:31:38.384Z,20.11
2022-08-03T06:34:34.225Z,20.26
2022-08-03T06:37:03.881Z,20.42
2022-08-03T06:39:32.447Z,20.56
2022-08-03T06:42:00.985Z,20.71
2022-08-03T06:44:29.554Z,20.85
2022-08-03T06:46:58.925Z,20.99
2022-08-03T06:49:28.370Z,21.12
2022-08-03T06:52:05.293Z,21.25
2022-08-03T06:54:46.066Z,21.40
2022-08-03T06:57:16.896Z,21.55
2022-08-03T07:00:06.611Z,21.68
2022-08-03T07:02:33.894Z,21.82
2022-08-03T07:05:02.979Z,21.98
2022-08-03T07:07:31.708Z,22.11
2022-08-03T07:10:00.211Z,22.25
2022-08-03T07:12:31.376Z,22.39
2022-08-03T07:15:03.317Z,22.54
2022-08-03T07:17:35.311Z,22.69
2022-08-03T07:20:08.085Z,22.84
2022-08-03T07:22:36.725Z,23.00
2022-08-03T07:25:06.182Z,23.14
2022-08-03T07:27:34.807Z,23.30
2022-08-03T07:30:08.180Z,23.46
2022-08-03T07:32:49.787Z,23.62
2022-08-03T07:35:25.046Z,23.79
2022-08-03T07:37:55.251Z,23.94
2022-08-03T07:40:32.431Z,24.08
2022-08-03T07:43:02.430Z,24.24
2022-08-03T07:45:33.074Z,24.37
2022-08-03T07:48:01.646Z,24.52
2022-08-03T07:50:48.855Z,24.81
2022-08-03T07:53:18.459Z,25.22
2022-08-03T07:55:47.599Z,25.51
2022-08-03T07:58:22.014Z,25.75
2022-08-03T08:01:09.232Z,25.99
2022-08-03T08:03:41.995Z,26.21
2022-08-03T08:06:22.241Z,26.34
2022-08-03T08:08:50.805Z,26.43
2022-08-03T08:11:19.351Z,26.49
2022-08-03T08:13:47.872Z,26.54
2022-08-03T08:16:16.964Z,26.60
2022-08-03T08:18:45.482Z,26.66
2022-08-03T08:21:14.157Z,26.74
2022-08-03T08:23:46.218Z,26.81
2022-08-03T08:26:23.516Z,26.89
2022-08-03T08:28:52.888Z,26.97
2022-08-03T08:31:21.612Z,27.05
2022-08-03T08:34:05.932Z,27.15
2022-08-03T08:36:35.963Z,27.28
2022-08-03T08:39:04.562Z,27.36
2022-08-03T08:41:34.957Z,27.45
2022-08-03T08:44:04.172Z,27.55
2022-08-03T08:46:34.096Z,27.63
2022-08-03T08:49:04.959Z,27.74
2022-08-03T08:51:50.570Z,27.84
2022-08-03T08:54:32.684Z,27.95
2022-08-03T08:57:16.437Z,28.06
2022-08-03T08:59:57.612Z,28.17
2022-08-03T09:02:31.312Z,28.28
2022-08-03T09:05:06.848Z,28.42
2022-08-03T09:07:36.447Z,28.56
2022-08-03T09:10:12.928Z,28.66
2022-08-03T09:12:53.617Z,28.77
2022-08-03T09:15:33.138Z,28.88
2022-08-03T09:18:04.894Z,28.98
2022-08-03T09:20:35.212Z,29.15
2022-08-03T09:24:00.623Z,29.49
2022-08-03T09:26:02.247Z,30.02
2022-08-03T09:29:01.318Z,30.37
2022-08-03T09:31:39.225Z,30.59
2022-08-03T09:34:15.999Z,30.75
2022-08-03T09:36:50.488Z,30.89
2022-08-03T09:39:40.923Z,31.03
2022-08-03T09:42:15.602Z,31.17
2022-08-03T09:44:48.313Z,31.23
2022-08-03T09:47:29.446Z,31.30
2022-08-03T09:50:10.667Z,31.37
2022-08-03T09:52:49.874Z,31.41
2022-08-03T09:56:33.080Z,31.39
2022-08-03T09:58:11.002Z,31.48
2022-08-03T10:01:24.086Z,31.60
2022-08-03T10:04:04.418Z,31.73
2022-08-03T10:06:33.794Z,31.84
2022-08-03T10:09:12.023Z,31.94
2022-08-03T10:11:42.743Z,32.10
2022-08-03T10:14:19.466Z,32.22
2022-08-03T10:16:49.924Z,32.35
2022-08-03T10:19:18.621Z,32.46
2022-08-03T10:21:53.994Z,32.51
2022-08-03T10:24:30.604Z,32.62
2022-08-03T10:27:08.349Z,32.71
2022-08-03T10:29:45.845Z,32.86
2022-08-03T10:32:22.110Z,33.01
2022-08-03T10:34:59.967Z,33.12
2022-08-03T10:37:48.390Z,33.13
2022-08-03T10:40:47.999Z,33.32
2022-08-03T10:43:41.222Z,33.57
2022-08-03T10:46:10.354Z,33.68
2022-08-03T10:48:40.136Z,33.55
2022-08-03T10:51:09.715Z,33.61
2022-08-03T10:53:54.562Z,33.55
2022-08-03T10:57:14.277Z,33.60
2022-08-03T10:59:46.231Z,34.14
2022-08-03T11:02:15.826Z,34.64
2022-08-03T11:04:47.018Z,35.14
2022-08-03T11:07:33.710Z,35.68
2022-08-03T11:10:02.464Z,36.22
2022-08-03T11:12:38.139Z,36.73
2022-08-03T11:15:09.131Z,37.20
2022-08-03T11:17:46.596Z,37.51
2022-08-03T11:20:53.232Z,37.81
2022-08-03T11:24:03.281Z,37.75
2022-08-03T11:26:35.158Z,37.17
2022-08-03T11:29:30.833Z,36.80
2022-08-03T11:31:59.605Z,36.52
2022-08-03T11:34:28.220Z,36.34
2022-08-03T11:37:29.993Z,36.28
2022-08-03T11:40:02.360Z,35.94
2022-08-03T11:42:34.158Z,35.83
2022-08-03T11:45:07.921Z,36.03
2022-08-03T11:47:50.550Z,36.04
2022-08-03T11:50:21.472Z,36.03
2022-08-03T11:52:51.104Z,36.03
2022-08-03T11:55:22.259Z,35.91
2022-08-03T11:59:13.118Z,35.39
2022-08-03T12:00:40.559Z,35.14
2022-08-03T12:03:14.294Z,35.10
2022-08-03T12:06:12.074Z,35.06
2022-08-03T12:08:43.549Z,35.35
2022-08-03T12:11:16.301Z,35.48
2022-08-03T12:14:44.927Z,35.73
2022-08-03T12:16:48.934Z,36.04
2022-08-03T12:19:17.472Z,36.21
2022-08-03T12:21:57.114Z,36.34
2022-08-03T12:24:28.756Z,36.49
2022-08-03T12:27:00.071Z,36.59
2022-08-03T12:29:28.789Z,36.73
2022-08-03T12:31:57.505Z,36.83
2022-08-03T12:34:47.449Z,36.89
2022-08-03T12:37:39.292Z,37.08
2022-08-03T12:40:17.794Z,37.28
2022-08-03T12:42:49.130Z,37.46
2022-08-03T12:45:23.388Z,37.36
2022-08-03T12:47:53.716Z,37.22
2022-08-03T12:50:34.275Z,37.28
2022-08-03T12:53:07.882Z,37.39
2022-08-03T12:55:40.157Z,37.48
2022-08-03T12:58:34.654Z,37.44
2022-08-03T13:01:09.975Z,37.53
2022-08-03T13:03:45.813Z,37.54
2022-08-03T13:06:27.374Z,37.72
2022-08-03T13:09:08.175Z,37.72
2022-08-03T13:11:59.027Z,37.89
2022-08-03T13:14:25.365Z,38.00
2022-08-03T13:16:53.953Z,38.12
2022-08-03T13:19:22.574Z,38.20
2022-08-03T13:22:03.601Z,38.29
2022-08-03T13:24:33.915Z,38.35
2022-08-03T13:28:01.129Z,38.46
2022-08-03T13:29:53.054Z,38.59
2022-08-03T13:32:23.321Z,38.62
2022-08-03T13:34:52.124Z,38.62
2022-08-03T13:37:20.933Z,38.66
2022-08-03T13:39:59.923Z,38.87
2022-08-03T13:42:31.705Z,39.18
2022-08-03T13:45:01.172Z,39.33
2022-08-03T13:47:29.804Z,39.22
2022-08-03T13:50:01.664Z,39.20
2022-08-03T13:52:36.308Z,39.37
2022-08-03T13:55:07.308Z,39.54
2022-08-03T13:58:03.026Z,39.62
2022-08-03T14:00:28.924Z,39.84
2022-08-03T14:03:09.545Z,39.99
2022-08-03T14:05:45.653Z,40.10
2022-08-03T14:08:16.259Z,40.26
2022-08-03T14:10:45.512Z,40.51
2022-08-03T14:13:17.785Z,40.64
2022-08-03T14:15:49.766Z,40.67
2022-08-03T14:18:28.750Z,40.69
2022-08-03T14:21:06.772Z,40.83
2022-08-03T14:23:40.541Z,40.87
2022-08-03T14:26:12.201Z,40.89
2022-08-03T14:28:42.444Z,40.97
2022-08-03T14:31:15.464Z,41.21
2022-08-03T14:33:59.529Z,41.37
2022-08-03T14:36:28.134Z,41.42
2022-08-03T14:39:01.040Z,41.54
2022-08-03T14:41:30.084Z,41.74
2022-08-03T14:44:02.024Z,41.99
2022-08-03T14:46:32.350Z,42.23
2022-08-03T14:50:36.068Z,42.30
2022-08-03T14:51:53.471Z,42.28
2022-08-03T14:54:23.125Z,42.33
2022-08-03T14:56:52.086Z,42.38
2022-08-03T14:59:20.760Z,42.25
2022-08-03T15:02:03.029Z,42.12
2022-08-03T15:04:36.398Z,42.03
2022-08-03T15:07:05.318Z,42.12
2022-08-03T15:09:34.655Z,42.25
2022-08-03T15:12:03.611Z,42.30
2022-08-03T15:14:33.293Z,42.50
2022-08-03T15:17:03.809Z,42.73
2022-08-03T15:20:03.301Z,42.90
2022-08-03T15:22:25.338Z,42.93
2022-08-03T15:26:02.313Z,43.09
2022-08-03T15:28:02.939Z,43.12
2022-08-03T15:30:36.162Z,43.19
2022-08-03T15:33:06.356Z,43.22
2022-08-03T15:35:35.150Z,43.28
2022-08-03T15:38:09.041Z,43.48
2022-08-03T15:40:38.530Z,43.64
2022-08-03T15:43:07.283Z,43.83
2022-08-03T15:45:37.040Z,43.93
2022-08-03T15:48:06.551Z,44.03
2022-08-03T15:50:35.128Z,44.15
2022-08-03T15:53:04.994Z,44.21
2022-08-03T15:55:33.848Z,44.28
2022-08-03T15:59:11.277Z,44.36
2022-08-03T16:00:51.358Z,44.34
2022-08-03T16:03:19.882Z,44.38
2022-08-03T16:05:48.476Z,44.30
2022-08-03T16:08:17.595Z,44.35
2022-08-03T16:10:48.046Z,44.40
2022-08-03T16:13:17.231Z,44.37
2022-08-03T16:15:45.761Z,44.35
2022-08-03T16:18:14.563Z,44.26
2022-08-03T16:20:44.970Z,44.16
2022-08-03T16:23:18.625Z,44.07
2022-08-03T16:25:49.400Z,44.00
2022-08-03T16:28:19.285Z,43.91
2022-08-03T16:30:48.050Z,43.84
2022-08-03T16:33:17.948Z,43.76
2022-08-03T16:35:49.692Z,43.68
2022-08-03T16:38:19.424Z,43.73
2022-08-03T16:40:52.289Z,43.87
2022-08-03T16:43:22.614Z,43.85
2022-08-03T16:45:52.307Z,43.62
2022-08-03T16:48:20.908Z,43.42
2022-08-03T16:50:49.616Z,43.31
2022-08-03T16:53:33.144Z,43.22
2022-08-03T16:56:10.796Z,43.07
2022-08-03T16:58:42.125Z,42.96
2022-08-03T17:01:21.754Z,42.76
2022-08-03T17:04:04.658Z,42.25
2022-08-03T17:06:45.148Z,41.62
2022-08-03T17:09:21.101Z,41.70
2022-08-03T17:11:52.011Z,42.95
2022-08-03T17:14:28.283Z,44.33
2022-08-03T17:17:04.773Z,45.66
2022-08-03T17:19:40.648Z,46.77
2022-08-03T17:22:21.104Z,47.69
2022-08-03T17:24:53.547Z,48.38
2022-08-03T17:28:50.874Z,48.89
2022-08-03T17:30:19.018Z,49.34
2022-08-03T17:32:52.438Z,49.63
2022-08-03T17:35:36.358Z,49.17
2022-08-03T17:38:10.342Z,46.72
2022-08-03T17:40:48.203Z,45.17
2022-08-03T17:44:12.832Z,43.88
2022-08-03T17:46:12.281Z,42.88
2022-08-03T17:48:42.206Z,42.05
2022-08-03T17:51:17.241Z,41.28
2022-08-03T17:53:58.385Z,40.44
2022-08-03T17:56:46.524Z,39.40
2022-08-03T17:59:51.285Z,38.36
2022-08-03T18:03:16.042Z,37.56
2022-08-03T18:06:10.468Z,36.87
2022-08-03T18:08:51.412Z,35.97
2022-08-03T18:11:35.467Z,34.85
2022-08-03T18:14:20.732Z,33.87
2022-08-03T18:17:01.803Z,32.97
2022-08-03T18:20:02.433Z,32.18
2022-08-03T18:22:25.564Z,31.43
2022-08-03T18:24:56.323Z,30.85
2022-08-03T18:27:24.935Z,30.36
2022-08-03T18:30:14.717Z,29.85
2022-08-03T18:32:44.280Z,29.46
2022-08-03T18:35:53.090Z,29.04
2022-08-03T18:38:21.121Z,28.66
2022-08-03T18:40:52.396Z,28.34
2022-08-03T18:43:47.171Z,28.07
2022-08-03T18:46:55.507Z,27.77
2022-08-03T18:49:47.941Z,27.43
2022-08-03T18:52:37.285Z,27.16
2022-08-03T18:55:33.113Z,26.91
2022-08-03T19:02:00.852Z,26.42
2022-08-03T19:04:25.399Z,26.22
2022-08-03T19:07:04.807Z,26.06
2022-08-03T19:09:58.749Z,25.89
2022-08-03T19:12:50.720Z,25.71
2022-08-03T19:15:36.927Z,25.56
2022-08-03T19:18:10.732Z,25.39
2022-08-03T19:20:41.849Z,25.26
2022-08-03T19:23:18.373Z,25.13
2022-08-03T19:25:47.047Z,25.02
2022-08-03T19:28:17.409Z,24.90
2022-08-03T19:30:53.704Z,24.82
2022-08-03T19:33:29.794Z,24.74
2022-08-03T19:35:59.235Z,24.68
2022-08-03T19:38:29.823Z,24.62
2022-08-03T19:41:03.051Z,24.56
2022-08-03T19:43:53.876Z,24.51
2022-08-03T19:46:31.674Z,24.42
2022-08-03T19:49:04.010Z,24.33
2022-08-03T19:52:00.704Z,24.25
2022-08-03T19:54:29.777Z,24.17
2022-08-03T19:57:02.686Z,24.09
2022-08-03T19:59:49.564Z,24.02
2022-08-03T20:02:26.400Z,23.95
2022-08-03T20:05:00.093Z,23.90
2022-08-03T20:07:33.097Z,23.85
2022-08-03T20:10:05.566Z,23.82
2022-08-03T20:12:39.325Z,23.78
2022-08-03T20:15:10.464Z,23.75
2022-08-03T20:17:56.240Z,23.72
2022-08-03T20:20:31.285Z,23.67
2022-08-03T20:23:06.658Z,23.60
2022-08-03T20:25:56.979Z,23.46
2022-08-03T20:28:50.348Z,23.35
2022-08-03T20:31:25.243Z,23.26
2022-08-03T20:34:07.251Z,23.18
2022-08-03T20:36:38.211Z,23.10
2022-08-03T20:39:28.326Z,23.05
2022-08-03T20:42:21.621Z,23.00
2022-08-03T20:45:04.447Z,22.95
2022-08-03T20:47:50.306Z,22.90
2022-08-03T20:50:27.226Z,22.84
2022-08-03T20:52:55.994Z,22.78
2022-08-03T20:55:47.906Z,22.75
2022-08-03T20:58:14.910Z,22.70
2022-08-03T21:00:44.070Z,22.65
2022-08-03T21:03:12.659Z,22.60
2022-08-03T21:05:51.024Z,22.55
2022-08-03T21:08:27.377Z,22.47
2022-08-03T21:10:59.188Z,22.41
2022-08-03T21:13:11.154Z,26.68
2022-08-03T21:13:55.520Z,22.36
2022-08-03T21:16:29.681Z,22.31
2022-08-03T21:19:02.707Z,22.27
2022-08-03T21:21:33.016Z,22.22
2022-08-03T21:24:03.795Z,22.16
2022-08-03T21:26:34.428Z,22.08
2022-08-03T21:29:03.145Z,22.01
2022-08-03T21:31:32.245Z,21.99
2022-08-03T21:34:04.742Z,22.01
2022-08-03T21:36:36.826Z,22.04
2022-08-03T21:39:10.606Z,21.94
2022-08-03T21:41:40.151Z,21.86
2022-08-03T21:44:09.417Z,21.81
2022-08-03T21:46:44.182Z,21.77
2022-08-03T21:50:05.119Z,21.72
2022-08-03T21:52:06.542Z,21.68
2022-08-03T21:54:40.976Z,21.62
2022-08-03T21:57:26.091Z,21.56
2022-08-03T22:00:04.493Z,21.50
2022-08-03T22:02:34.985Z,21.45
2022-08-03T22:05:04.747Z,21.41
2022-08-03T22:07:34.983Z,21.37
2022-08-03T22:10:06.801Z,21.33
2022-08-03T22:12:36.448Z,21.30
2022-08-03T22:15:10.491Z,21.26
2022-08-03T22:17:55.173Z,21.24
2022-08-03T22:20:25.916Z,21.18
2022-08-03T22:22:57.478Z,21.13
2022-08-03T22:25:30.824Z,21.09
2022-08-03T22:28:10.432Z,21.04
2022-08-03T22:30:41.686Z,21.00
2022-08-03T22:33:12.122Z,20.95
2022-08-03T22:35:49.224Z,20.90
2022-08-03T22:38:18.700Z,20.84
2022-08-03T22:40:51.054Z,20.80
2022-08-03T22:43:27.854Z,20.76
2022-08-03T22:46:11.223Z,20.70
2022-08-03T22:48:41.985Z,20.66
2022-08-03T22:51:10.820Z,20.62
2022-08-03T22:53:40.822Z,20.58
2022-08-03T22:56:10.143Z,20.54
2022-08-03T22:58:38.823Z,20.49
2022-08-03T23:01:11.611Z,20.44
2022-08-03T23:03:59.882Z,20.39
2022-08-03T23:06:37.744Z,20.32
2022-08-03T23:09:11.108Z,20.26
2022-08-03T23:11:42.867Z,20.20
2022-08-03T23:14:19.323Z,20.13
2022-08-03T23:16:50.395Z,20.09
2022-08-03T23:19:25.561Z,20.04
2022-08-03T23:22:03.152Z,20.00
2022-08-03T23:24:36.395Z,19.96
2022-08-03T23:27:07.156Z,19.90
2022-08-03T23:29:39.404Z,19.86
2022-08-03T23:32:08.258Z,19.82
2022-08-03T23:34:58.099Z,19.79
2022-08-03T23:37:27.027Z,19.74
2022-08-03T23:39:57.537Z,19.69
2022-08-03T23:42:27.560Z,19.66
2022-08-03T23:45:05.450Z,19.61
2022-08-03T23:47:47.074Z,19.54
2022-08-03T23:50:18.827Z,19.49
2022-08-03T23:53:00.428Z,19.44
2022-08-03T23:55:58.017Z,19.38
2022-08-03T23:59:24.332Z,19.34
